createdAt,value
2022-11-06T00:01:55.187Z,94.76
2022-11-06T00:04:22.997Z,95.84
2022-11-06T00:06:49.860Z,93.76
2022-11-06T00:09:20.081Z,94.56
2022-11-06T00:11:49.145Z,95.38
2022-11-06T00:14:17.620Z,94.12
2022-11-06T00:16:48.410Z,95.45
2022-11-06T00:19:16.964Z,94.51
2022-11-06T00:21:45.158Z,94.95
2022-11-06T00:24:14.321Z,95.37
2022-11-06T00:26:42.691Z,94.94
2022-11-06T00:29:14.644Z,94.48
2022-11-06T00:31:42.483Z,94.73
2022-11-06T00:34:11.972Z,94.53
2022-11-06T00:36:39.746Z,94.83
2022-11-06T00:39:08.074Z,94.57
2022-11-06T00:41:35.826Z,94.27
2022-11-06T00:44:05.039Z,93.64
2022-11-06T00:46:32.912Z,95.69
2022-11-06T00:49:00.717Z,95.11
2022-11-06T00:51:32.136Z,95.40
2022-11-06T00:54:02.393Z,94.36
2022-11-06T00:56:31.152Z,93.96
2022-11-06T00:59:00.780Z,94.06
2022-11-06T01:01:30.529Z,93.55
2022-11-06T01:04:00.965Z,94.37
2022-11-06T01:06:32.532Z,94.90
2022-11-06T01:09:02.205Z,95.37
2022-11-06T01:11:52.340Z,96.80
2022-11-06T01:14:21.261Z,95.72
2022-11-06T01:16:49.395Z,94.37
2022-11-06T01:19:19.222Z,95.46
2022-11-06T01:21:50.036Z,95.42
2022-11-06T01:24:26.461Z,95.79
2022-11-06T01:29:42.723Z,95.69
2022-11-06T01:32:11.112Z,96.32
2022-11-06T01:34:38.901Z,96.50
2022-11-06T01:37:13.051Z,96.66
2022-11-06T01:39:42.125Z,96.43
2022-11-06T01:42:12.124Z,96.06
2022-11-06T01:45:17.406Z,95.95
2022-11-06T01:47:45.599Z,95.78
2022-11-06T01:50:15.795Z,97.48
2022-11-06T01:52:46.911Z,97.01
2022-11-06T01:55:20.313Z,97.26
2022-11-06T01:57:48.743Z,96.59
2022-11-06T02:00:17.370Z,97.27
2022-11-06T02:02:45.359Z,97.69
2022-11-06T02:05:13.317Z,97.33
2022-11-06T02:07:43.033Z,98.47
2022-11-06T02:10:12.516Z,98.25
2022-11-06T02:12:55.815Z,100.00
2022-11-06T02:15:35.473Z,98.63
2022-11-06T02:18:22.966Z,98.19
2022-11-06T05:29:34.648Z,100.00
2022-11-06T05:32:02.446Z,100.00
2022-11-06T05:34:30.300Z,100.00
2022-11-06T05:36:58.143Z,100.00
2022-11-06T05:39:25.849Z,100.00
2022-11-06T05:41:54.107Z,100.00
2022-11-06T05:44:21.913Z,100.00
2022-11-06T05:46:50.996Z,100.00
2022-11-06T05:49:19.030Z,100.00
2022-11-06T05:51:46.861Z,100.00
2022-11-06T05:54:15.415Z,100.00
2022-11-06T05:56:43.285Z,100.00
2022-11-06T05:59:10.977Z,100.00
2022-11-06T06:01:38.817Z,100.00
2022-11-06T06:04:07.928Z,100.00
2022-11-06T06:06:36.056Z,100.00
2022-11-06T06:09:04.428Z,100.00
2022-11-06T06:11:32.247Z,100.00
2022-11-06T06:14:01.785Z,100.00
2022-11-06T06:16:29.725Z,100.00
2022-11-06T06:18:57.431Z,100.00
2022-11-06T06:21:26.562Z,100.00
2022-11-06T06:23:54.250Z,100.00
2022-11-06T06:26:21.932Z,100.00
2022-11-06T06:28:50.065Z,100.00
2022-11-06T06:31:17.779Z,100.00
2022-11-06T06:33:45.527Z,100.00
2022-11-06T06:36:13.378Z,100.00
2022-11-06T06:38:42.506Z,100.00
2022-11-06T06:41:11.988Z,100.00
2022-11-06T06:43:39.858Z,100.00
2022-11-06T06:46:08.027Z,100.00
2022-11-06T06:48:36.343Z,100.00
2022-11-06T06:51:04.974Z,100.00
2022-11-06T06:53:32.832Z,100.00
2022-11-06T06:56:03.056Z,100.00
2022-11-06T06:58:31.530Z,100.00
2022-11-06T07:01:02.119Z,100.00
2022-11-06T07:03:30.198Z,100.00
2022-11-06T07:05:58.843Z,100.00
2022-11-06T07:08:26.676Z,100.00
2022-11-06T07:10:54.419Z,100.00
2022-11-06T07:13:23.451Z,100.00
2022-11-06T07:15:51.199Z,100.00
2022-11-06T07:18:18.880Z,100.00
2022-11-06T07:20:46.605Z,100.00
2022-11-06T07:23:14.382Z,100.00
2022-11-06T07:25:42.115Z,100.00
2022-11-06T07:28:10.186Z,100.00
2022-11-06T07:30:39.264Z,100.00
2022-11-06T07:33:07.231Z,100.00
2022-11-06T07:35:35.965Z,100.00
2022-11-06T07:38:05.871Z,100.00
2022-11-06T07:40:33.863Z,100.00
2022-11-06T07:43:05.785Z,100.00
2022-11-06T07:45:33.584Z,100.00
2022-11-06T07:48:02.845Z,100.00
2022-11-06T07:50:30.795Z,100.00
2022-11-06T07:52:58.704Z,100.00
2022-11-06T07:55:26.380Z,100.00
2022-11-06T07:57:54.089Z,100.00
2022-11-06T08:00:22.063Z,100.00
2022-11-06T08:02:52.653Z,100.00
2022-11-06T08:05:21.787Z,100.00
2022-11-06T08:07:49.468Z,100.00
2022-11-06T08:10:17.707Z,100.00
2022-11-06T08:12:45.477Z,100.00
2022-11-06T08:15:13.194Z,100.00
2022-11-06T08:17:40.883Z,100.00
2022-11-06T08:20:10.835Z,100.00
2022-11-06T08:22:39.957Z,100.00
2022-11-06T08:25:09.203Z,100.00
2022-11-06T08:27:37.756Z,100.00
2022-11-06T08:30:06.312Z,100.00
2022-11-06T08:32:34.080Z,100.00
2022-11-06T08:35:01.820Z,100.00
2022-11-06T08:37:29.515Z,100.00
2022-11-06T08:39:58.663Z,100.00
2022-11-06T08:42:26.345Z,100.00
2022-11-06T08:44:54.092Z,100.00
2022-11-06T08:47:21.789Z,100.00
2022-11-06T08:49:49.459Z,100.00
2022-11-06T08:52:17.338Z,100.00
2022-11-06T08:54:45.099Z,100.00
2022-11-06T08:57:14.208Z,100.00
2022-11-06T08:59:41.993Z,100.00
2022-11-06T09:02:13.203Z,100.00
2022-11-06T09:04:41.610Z,100.00
2022-11-06T09:07:09.592Z,100.00
2022-11-06T09:09:37.428Z,100.00
2022-11-06T09:12:05.636Z,100.00
2022-11-06T09:14:35.071Z,100.00
2022-11-06T09:17:02.742Z,100.00
2022-11-06T09:19:30.460Z,100.00
2022-11-06T09:21:58.151Z,100.00
2022-11-06T09:24:49.606Z,100.00
2022-11-06T09:27:13.786Z,100.00
2022-11-06T09:29:44.211Z,100.00
2022-11-06T09:32:11.927Z,100.00
2022-11-06T09:34:39.701Z,100.00
2022-11-06T09:37:07.368Z,100.00
2022-11-06T09:39:35.062Z,100.00
2022-11-06T09:42:13.678Z,100.00
2022-11-06T09:44:56.488Z,100.00
2022-11-06T09:47:31.079Z,100.00
2022-11-06T09:49:59.236Z,100.00
2022-11-06T09:52:35.483Z,100.00
2022-11-06T09:55:05.929Z,100.00
2022-11-06T09:57:38.711Z,100.00
2022-11-06T10:00:12.693Z,100.00
2022-11-06T10:02:47.319Z,100.00
2022-11-06T10:05:25.083Z,100.00
2022-11-06T10:07:54.884Z,100.00
2022-11-06T10:10:28.048Z,100.00
2022-11-06T10:13:17.236Z,100.00
2022-11-06T10:15:53.096Z,100.00
2022-11-06T10:18:31.075Z,100.00
2022-11-06T10:21:09.399Z,100.00
2022-11-06T10:23:45.317Z,100.00
2022-11-06T10:26:16.353Z,100.00
2022-11-06T10:29:22.164Z,100.00
2022-11-06T10:32:02.904Z,100.00
2022-11-06T10:34:35.864Z,100.00
2022-11-06T10:37:09.719Z,100.00
2022-11-06T10:39:38.142Z,100.00
2022-11-06T10:42:13.184Z,100.00
2022-11-06T10:44:47.115Z,100.00
2022-11-06T10:47:20.241Z,100.00
2022-11-06T10:49:51.232Z,100.00
2022-11-06T10:52:39.788Z,100.00
2022-11-06T10:55:54.770Z,100.00
2022-11-06T10:58:24.445Z,100.00
2022-11-06T11:01:02.372Z,100.00
2022-11-06T11:03:33.784Z,100.00
2022-11-06T11:06:01.806Z,100.00
2022-11-06T11:08:39.739Z,100.00
2022-11-06T11:11:17.052Z,100.00
2022-11-06T11:13:47.062Z,100.00
2022-11-06T11:16:18.262Z,100.00
2022-11-06T11:18:47.818Z,100.00
2022-11-06T11:21:24.250Z,100.00
2022-11-06T11:24:09.320Z,100.00
2022-11-06T11:26:40.947Z,100.00
2022-11-06T11:29:15.352Z,100.00
2022-11-06T11:31:47.961Z,100.00
2022-11-06T11:34:23.347Z,100.00
2022-11-06T11:37:02.917Z,100.00
2022-11-06T11:39:32.857Z,100.00
2022-11-06T11:42:25.854Z,100.00
2022-11-06T11:45:17.198Z,100.00
2022-11-06T11:47:47.845Z,100.00
2022-11-06T11:50:37.751Z,100.00
2022-11-06T11:53:12.680Z,100.00
2022-11-06T11:55:44.354Z,100.00
2022-11-06T11:58:23.640Z,100.00
2022-11-06T12:00:57.144Z,100.00
2022-11-06T12:03:29.035Z,100.00
2022-11-06T12:06:09.097Z,100.00
2022-11-06T12:08:39.071Z,100.00
2022-11-06T12:11:08.430Z,100.00
2022-11-06T12:13:36.175Z,100.00
2022-11-06T12:16:06.639Z,100.00
2022-11-06T12:18:36.823Z,100.00
2022-11-06T12:21:08.402Z,100.00
2022-11-06T12:23:41.788Z,100.00
2022-11-06T12:26:13.314Z,100.00
2022-11-06T12:28:44.587Z,100.00
2022-11-06T12:31:21.128Z,100.00
2022-11-06T12:34:06.947Z,100.00
2022-11-06T12:36:42.252Z,100.00
2022-11-06T12:39:17.415Z,100.00
2022-11-06T12:41:48.140Z,100.00
2022-11-06T12:44:18.311Z,100.00
2022-11-06T12:46:55.960Z,100.00
2022-11-06T12:49:36.596Z,100.00
2022-11-06T12:52:18.726Z,100.00
2022-11-06T12:55:08.695Z,100.00
2022-11-06T12:57:48.952Z,100.00
2022-11-06T13:00:20.459Z,100.00
2022-11-06T13:03:19.058Z,100.00
2022-11-06T13:05:53.607Z,100.00
2022-11-06T13:08:32.244Z,100.00
2022-11-06T13:11:10.380Z,100.00
2022-11-06T13:13:47.079Z,100.00
2022-11-06T13:16:28.787Z,100.00
2022-11-06T13:19:01.917Z,100.00
2022-11-06T13:21:36.857Z,100.00
2022-11-06T13:24:12.382Z,100.00
2022-11-06T13:26:47.535Z,100.00
2022-11-06T13:29:18.522Z,100.00
2022-11-06T13:31:49.828Z,100.00
2022-11-06T13:34:23.494Z,100.00
2022-11-06T13:36:52.399Z,100.00
2022-11-06T13:39:29.696Z,100.00
2022-11-06T13:41:58.805Z,100.00
2022-11-06T13:44:27.564Z,100.00
2022-11-06T13:47:03.188Z,100.00
2022-11-06T13:49:43.931Z,100.00
2022-11-06T13:52:16.851Z,98.22
2022-11-06T13:55:01.914Z,95.34
2022-11-06T13:57:53.275Z,97.82
2022-11-06T14:00:22.762Z,97.41
2022-11-06T14:03:23.470Z,100.00
2022-11-06T14:05:54.187Z,98.93
2022-11-06T14:08:26.808Z,100.00
2022-11-06T14:10:59.877Z,96.52
2022-11-06T14:13:32.202Z,98.64
2022-11-06T14:16:15.607Z,98.21
2022-11-06T14:18:43.667Z,98.36
2022-11-06T14:21:45.402Z,96.90
2022-11-06T14:24:32.978Z,98.21
2022-11-06T14:27:03.435Z,98.41
2022-11-06T14:30:02.191Z,98.25
2022-11-06T14:32:45.629Z,96.44
2022-11-06T14:35:46.645Z,96.63
2022-11-06T14:38:18.944Z,95.66
2022-11-06T14:40:46.898Z,97.27
2022-11-06T14:43:23.937Z,94.75
2022-11-06T14:45:53.555Z,95.94
2022-11-06T14:48:30.458Z,96.66
2022-11-06T14:51:00.694Z,95.44
2022-11-06T14:53:32.593Z,98.96
2022-11-06T14:56:03.125Z,95.70
2022-11-06T14:58:35.168Z,96.82
2022-11-06T15:01:13.828Z,98.03
2022-11-06T15:03:47.927Z,98.58
2022-11-06T15:06:40.691Z,96.50
2022-11-06T15:09:13.095Z,97.05
2022-11-06T15:11:55.746Z,98.57
2022-11-06T15:14:57.162Z,98.67
2022-11-06T15:17:28.174Z,99.33
2022-11-06T15:20:05.847Z,97.57
2022-11-06T15:22:39.145Z,97.07
2022-11-06T15:25:18.548Z,94.75
2022-11-06T15:27:49.483Z,95.07
2022-11-06T15:30:21.314Z,92.10
2022-11-06T15:32:52.597Z,93.39
2022-11-06T15:35:23.582Z,91.29
2022-11-06T15:37:53.993Z,90.71
2022-11-06T15:40:26.015Z,91.49
2022-11-06T15:42:54.073Z,91.41
2022-11-06T15:45:25.399Z,92.02
2022-11-06T15:47:58.969Z,91.13
2022-11-06T15:50:28.759Z,91.05
2022-11-06T15:53:11.015Z,89.53
2022-11-06T15:55:40.988Z,90.24
2022-11-06T15:58:09.808Z,89.88
2022-11-06T16:00:42.345Z,89.84
2022-11-06T16:03:15.854Z,90.08
2022-11-06T16:05:44.287Z,90.44
2022-11-06T16:08:14.585Z,90.79
2022-11-06T16:10:44.892Z,91.47
2022-11-06T16:13:14.434Z,91.10
2022-11-06T16:15:56.437Z,92.10
2022-11-06T16:18:28.208Z,93.47
2022-11-06T16:21:00.161Z,92.55
2022-11-06T16:23:38.755Z,92.97
2022-11-06T16:26:10.046Z,93.89
2022-11-06T16:28:43.057Z,95.17
2022-11-06T16:31:17.296Z,95.11
2022-11-06T16:33:55.396Z,95.79
2022-11-06T16:36:23.756Z,95.77
2022-11-06T16:38:53.291Z,96.65
2022-11-06T16:41:47.879Z,97.09
2022-11-06T16:44:29.655Z,96.63
2022-11-06T16:47:12.754Z,96.36
2022-11-06T16:49:41.829Z,97.75
2022-11-06T16:52:22.832Z,98.20
2022-11-06T16:54:52.245Z,97.26
2022-11-06T16:57:22.428Z,97.15
2022-11-06T16:59:59.770Z,98.63
2022-11-06T17:02:32.218Z,97.78
2022-11-06T17:05:14.322Z,96.99
2022-11-06T17:07:44.105Z,98.52
2022-11-06T17:10:37.307Z,97.04
2022-11-06T17:13:14.652Z,97.13
2022-11-06T17:15:43.236Z,98.94
2022-11-06T17:18:16.888Z,98.16
2022-11-06T17:20:49.023Z,98.68
2022-11-06T17:23:17.601Z,97.61
2022-11-06T17:25:47.195Z,98.30
2022-11-06T17:28:14.904Z,99.72
2022-11-06T17:30:42.609Z,100.00
2022-11-06T17:33:10.337Z,100.00
2022-11-06T17:35:40.425Z,100.00
2022-11-06T17:38:08.344Z,100.00
2022-11-06T17:40:36.328Z,99.64
2022-11-06T17:43:04.028Z,100.00
2022-11-06T17:45:31.956Z,100.00
2022-11-06T17:47:59.653Z,99.29
2022-11-06T17:50:27.690Z,100.00
2022-11-06T17:52:56.761Z,100.00
2022-11-06T17:55:24.491Z,100.00
2022-11-06T17:57:52.149Z,98.76
2022-11-06T18:00:20.755Z,98.81
2022-11-06T18:03:01.152Z,99.09
2022-11-06T18:05:29.972Z,99.93
2022-11-06T18:07:59.047Z,100.00
2022-11-06T18:10:30.369Z,99.73
2022-11-06T18:12:58.612Z,99.73
2022-11-06T18:15:26.410Z,100.00
2022-11-06T18:17:54.090Z,99.45
2022-11-06T18:20:21.815Z,98.50
2022-11-06T18:22:49.551Z,97.15
2022-11-06T18:25:18.688Z,97.75
2022-11-06T18:27:46.379Z,97.54
2022-11-06T18:30:14.795Z,96.90
2022-11-06T18:32:42.489Z,95.82
2022-11-06T18:35:10.599Z,97.07
2022-11-06T18:37:38.269Z,99.14
2022-11-06T18:40:06.799Z,97.57
2022-11-06T18:42:35.974Z,97.05
2022-11-06T18:45:03.740Z,96.67
2022-11-06T18:47:31.438Z,99.26
2022-11-06T18:49:59.207Z,99.40
2022-11-06T18:52:51.417Z,100.00
2022-11-06T18:55:14.748Z,99.45
2022-11-06T18:57:43.851Z,100.00
2022-11-06T19:00:13.556Z,100.00
2022-11-06T19:02:41.669Z,100.00
2022-11-06T19:05:09.654Z,100.00
2022-11-06T19:07:37.525Z,100.00
2022-11-06T19:10:06.237Z,100.00
2022-11-06T19:12:34.272Z,100.00
2022-11-06T19:15:03.421Z,100.00
2022-11-06T19:17:31.114Z,100.00
2022-11-06T19:19:59.762Z,100.00
2022-11-06T19:22:29.325Z,100.00
2022-11-06T19:24:57.049Z,100.00
2022-11-06T19:27:24.816Z,100.00
2022-11-06T19:29:52.579Z,100.00
2022-11-06T19:32:21.699Z,100.00
2022-11-06T19:34:49.386Z,100.00
2022-11-06T19:37:17.119Z,100.00
2022-11-06T19:39:44.816Z,100.00
2022-11-06T19:42:12.537Z,100.00
2022-11-06T19:44:40.281Z,100.00
2022-11-06T19:47:08.002Z,100.00
2022-11-06T19:49:37.223Z,100.00
2022-11-06T19:52:41.235Z,100.00
2022-11-06T19:55:26.839Z,100.00
2022-11-06T19:57:40.749Z,100.00
2022-11-06T20:00:11.384Z,100.00
2022-11-06T20:02:39.544Z,100.00
2022-11-06T20:05:09.472Z,100.00
2022-11-06T20:07:37.813Z,100.00
2022-11-06T20:10:06.245Z,100.00
2022-11-06T20:12:33.925Z,100.00
2022-11-06T20:15:01.727Z,100.00
2022-11-06T20:17:29.424Z,100.00
2022-11-06T20:19:57.153Z,100.00
2022-11-06T20:22:26.232Z,100.00
2022-11-06T20:24:54.151Z,100.00
2022-11-06T20:27:21.998Z,100.00
2022-11-06T20:29:49.697Z,100.00
2022-11-06T20:32:19.262Z,100.00
2022-11-06T20:34:47.348Z,100.00
2022-11-06T20:37:15.072Z,100.00
2022-11-06T20:39:45.400Z,100.00
2022-11-06T20:42:13.087Z,100.00
2022-11-06T20:44:40.820Z,100.00
2022-11-06T20:47:08.503Z,100.00
2022-11-06T20:49:37.945Z,100.00
2022-11-06T20:52:14.802Z,100.00
2022-11-06T20:54:47.568Z,100.00
2022-11-06T20:57:15.993Z,100.00
2022-11-06T20:59:43.839Z,100.00
2022-11-06T21:02:12.297Z,100.00
2022-11-06T21:04:40.300Z,100.00
2022-11-06T21:07:08.040Z,100.00
2022-11-06T21:09:35.751Z,100.00
2022-11-06T21:12:05.301Z,100.00
2022-11-06T21:14:33.269Z,100.00
2022-11-06T21:17:02.281Z,100.00
2022-11-06T21:19:30.767Z,100.00
2022-11-06T21:21:58.600Z,100.00
2022-11-06T21:24:26.317Z,100.00
2022-11-06T21:26:55.902Z,100.00
2022-11-06T21:29:25.740Z,100.00
2022-11-06T21:31:53.441Z,100.00
2022-11-06T21:34:21.223Z,100.00
2022-11-06T21:36:49.004Z,100.00
2022-11-06T21:39:19.103Z,100.00
2022-11-06T21:41:47.795Z,100.00
2022-11-06T21:44:17.306Z,100.00
2022-11-06T21:46:47.170Z,100.00
2022-11-06T21:49:15.271Z,100.00
2022-11-06T21:51:43.020Z,100.00
2022-11-06T21:54:29.562Z,100.00
2022-11-06T21:56:57.324Z,100.00
2022-11-06T21:59:26.461Z,100.00
2022-11-06T22:01:55.648Z,100.00
2022-11-06T22:04:23.766Z,100.00
2022-11-06T22:06:52.283Z,100.00
2022-11-06T22:09:24.824Z,100.00
2022-11-06T22:11:53.288Z,100.00
2022-11-06T22:14:21.036Z,100.00
2022-11-06T22:16:48.960Z,100.00
2022-11-06T22:19:18.602Z,100.00
2022-11-06T22:21:46.631Z,100.00
2022-11-06T22:24:15.165Z,100.00
2022-11-06T22:26:43.331Z,100.00
2022-11-06T22:29:13.801Z,100.00
2022-11-06T22:31:42.020Z,100.00
2022-11-06T22:34:10.780Z,100.00
2022-11-06T22:36:40.471Z,100.00
2022-11-06T22:39:09.851Z,100.00
2022-11-06T22:41:38.565Z,100.00
2022-11-06T22:44:06.761Z,100.00
2022-11-06T22:46:34.694Z,100.00
2022-11-06T22:49:02.639Z,100.00
2022-11-06T22:51:31.849Z,100.00
2022-11-06T22:54:02.083Z,100.00
2022-11-06T22:56:31.392Z,100.00
2022-11-06T22:59:00.984Z,100.00
2022-11-06T23:01:30.978Z,100.00
2022-11-06T23:04:01.247Z,100.00
2022-11-06T23:06:29.053Z,100.00
2022-11-06T23:08:56.779Z,100.00
2022-11-06T23:11:28.137Z,100.00
2022-11-06T23:13:56.345Z,100.00
2022-11-06T23:16:39.465Z,100.00
2022-11-06T23:19:08.041Z,100.00
2022-11-06T23:21:36.029Z,100.00
2022-11-06T23:24:04.787Z,100.00
2022-11-06T23:26:33.889Z,100.00
2022-11-06T23:29:02.019Z,100.00
2022-11-06T23:31:29.814Z,100.00
2022-11-06T23:33:57.576Z,100.00
2022-11-06T23:36:25.249Z,100.00
2022-11-06T23:38:54.274Z,100.00
2022-11-06T23:41:39.269Z,100.00
2022-11-06T23:44:29.666Z,100.00
2022-11-06T23:46:57.103Z,100.00
2022-11-06T23:49:26.030Z,100.00
2022-11-06T23:51:53.831Z,100.00
2022-11-06T23:54:21.713Z,100.00
2022-11-06T23:56:49.497Z,100.00
2022-11-06T23:59:18.554Z,100.00
